Terminal Aerodrome Forecast
Issued by NWS Newport/Morehead City, NC

Home | Current Version | Previous Version | Graphics & Text | Print | Product List | Glossary Off
Versions: 1 2 3 4 5 6 7 8 9 10 11 12 13

000
FTUS42 KMHX 280537
TAFEWN
TAF
KEWN 280537Z 2806/0106 VRB03KT P6SM BKN100
     FM281200 VRB06KT P6SM BKN050
     FM281700 19009KT P6SM BKN050
     FM010000 19006KT P6SM BKN150=

USA.gov is the U.S. government's official web portal to all federal, state and local government web resources and services.